createdAt,value
2023-04-17T00:00:34.176Z,9.37
2023-04-17T00:08:08.341Z,10.60
2023-04-17T00:15:44.337Z,9.80
2023-04-17T00:23:18.420Z,10.70
2023-04-17T00:30:53.872Z,10.53
2023-04-17T00:38:27.978Z,11.05
2023-04-17T00:46:03.806Z,11.20
2023-04-17T00:53:38.142Z,10.73
2023-04-17T01:01:14.654Z,11.85
2023-04-17T01:08:48.840Z,12.52
2023-04-17T01:16:24.646Z,11.40
2023-04-17T01:24:03.796Z,11.63
2023-04-17T01:31:39.978Z,10.73
2023-04-17T01:39:15.647Z,10.10
2023-04-17T01:46:49.620Z,10.30
2023-04-17T01:54:25.180Z,9.80
2023-04-17T02:01:59.425Z,10.43
2023-04-17T02:17:26.582Z,11.93
2023-04-17T02:25:02.048Z,10.70
2023-04-17T02:32:36.096Z,11.90
2023-04-17T02:40:12.081Z,12.00
2023-04-17T02:47:46.361Z,10.43
2023-04-17T02:55:22.576Z,10.95
2023-04-17T03:02:57.027Z,11.48
2023-04-17T03:18:06.561Z,11.37
2023-04-17T03:25:42.219Z,13.37
2023-04-17T03:33:16.623Z,11.77
2023-04-17T03:40:52.116Z,11.25
2023-04-17T03:48:26.212Z,11.55
2023-04-17T03:56:01.577Z,12.90
2023-04-17T04:03:35.967Z,11.40
2023-04-17T04:11:11.395Z,12.18
2023-04-17T04:18:45.454Z,10.52
2023-04-17T04:26:22.070Z,11.37
2023-04-17T04:33:56.017Z,13.73
2023-04-17T04:41:34.132Z,12.80
2023-04-17T04:49:08.099Z,11.75
2023-04-17T04:56:45.140Z,13.77
2023-04-17T05:04:19.236Z,12.48
2023-04-17T05:11:55.192Z,15.52
2023-04-17T05:19:30.401Z,16.25
2023-04-17T05:27:06.007Z,15.82
2023-04-17T05:34:39.873Z,14.05
2023-04-17T05:42:15.476Z,13.87
2023-04-17T05:49:51.547Z,15.07
2023-04-17T05:57:27.073Z,17.88
2023-04-17T06:05:01.508Z,17.77
2023-04-17T06:20:12.661Z,21.65
2023-04-17T06:27:48.151Z,22.52
2023-04-17T06:35:22.364Z,22.65
2023-04-17T06:42:57.851Z,24.52
2023-04-17T06:50:31.949Z,24.17
2023-04-17T06:58:09.123Z,25.23
2023-04-17T07:06:02.768Z,23.88
2023-04-17T07:13:37.984Z,20.95
2023-04-17T07:21:12.064Z,21.85
2023-04-17T07:28:47.460Z,21.87
2023-04-17T07:36:21.429Z,22.85
2023-04-17T07:43:58.941Z,22.30
2023-04-17T07:51:33.088Z,26.17
2023-04-17T07:59:08.557Z,22.57
2023-04-17T08:06:43.129Z,19.08
2023-04-17T08:14:20.552Z,17.48
2023-04-17T08:22:02.781Z,17.38
2023-04-17T08:29:39.814Z,17.15
2023-04-17T08:37:14.374Z,17.20
2023-04-17T08:44:51.117Z,15.00
2023-04-17T08:52:25.297Z,16.80
2023-04-17T09:00:06.236Z,17.03
2023-04-17T09:07:44.442Z,18.02
2023-04-17T09:15:20.139Z,17.35
2023-04-17T09:23:01.786Z,17.90
2023-04-17T09:30:39.440Z,16.88
2023-04-17T09:38:13.655Z,16.50
2023-04-17T09:45:49.883Z,14.97
2023-04-17T09:53:24.381Z,14.45
2023-04-17T10:00:59.848Z,14.63
2023-04-17T10:08:35.105Z,15.27
2023-04-17T10:16:10.739Z,13.30
2023-04-17T10:23:44.674Z,12.88
2023-04-17T10:31:20.271Z,13.27
2023-04-17T10:38:54.237Z,11.77
2023-04-17T10:46:31.312Z,13.52
2023-04-17T10:54:06.956Z,12.93
2023-04-17T11:02:01.252Z,12.13
2023-04-17T11:09:36.264Z,12.40
2023-04-17T11:17:11.950Z,12.77
2023-04-17T11:24:45.948Z,12.18
2023-04-17T11:32:21.430Z,10.75
2023-04-17T11:40:05.823Z,9.90
2023-04-17T11:47:41.770Z,11.17
2023-04-17T11:55:17.482Z,11.15
2023-04-17T12:02:53.023Z,12.35
2023-04-17T12:10:40.790Z,10.57
2023-04-17T12:18:16.179Z,9.73
2023-04-17T12:25:50.090Z,12.00
2023-04-17T12:33:26.021Z,11.85
2023-04-17T12:41:00.034Z,12.32
2023-04-17T12:48:36.449Z,11.40
2023-04-17T12:56:11.038Z,11.60
2023-04-17T13:03:46.740Z,12.23
2023-04-17T13:11:20.814Z,14.18
2023-04-17T13:18:56.530Z,11.87
2023-04-17T13:26:30.742Z,11.27
2023-04-17T13:34:06.230Z,10.33
2023-04-17T13:41:40.163Z,10.43
2023-04-17T13:49:16.200Z,12.30
2023-04-17T13:56:50.274Z,12.45
2023-04-17T14:04:25.833Z,9.87
2023-04-17T14:12:00.311Z,11.52
2023-04-17T14:19:35.883Z,15.30
2023-04-17T14:27:10.151Z,12.93
2023-04-17T14:34:45.748Z,14.07
2023-04-17T14:42:19.969Z,12.90
2023-04-17T14:49:55.397Z,16.37
2023-04-17T14:57:30.502Z,14.02
2023-04-17T15:05:06.639Z,14.35
2023-04-17T15:12:58.364Z,13.38
2023-04-17T15:28:25.613Z,15.05
2023-04-17T15:36:01.572Z,11.18
2023-04-17T15:43:35.900Z,11.70
2023-04-17T15:51:13.512Z,11.97
2023-04-17T15:58:47.995Z,10.32
2023-04-17T16:06:23.380Z,11.93
2023-04-17T16:13:57.695Z,10.82
2023-04-17T16:21:33.369Z,11.03
2023-04-17T16:29:07.280Z,11.77
2023-04-17T16:36:45.438Z,12.47
2023-04-17T16:44:19.770Z,11.40
2023-04-17T16:51:55.561Z,11.47
2023-04-17T16:59:29.691Z,12.07
2023-04-17T17:07:04.886Z,12.50
2023-04-17T17:14:38.837Z,10.30
2023-04-17T17:22:14.616Z,13.83
2023-04-17T17:29:48.576Z,14.07
2023-04-17T17:37:25.332Z,11.77
2023-04-17T17:44:59.336Z,10.27
2023-04-17T17:52:34.637Z,13.20
2023-04-17T18:00:10.045Z,12.93
2023-04-17T18:07:45.448Z,10.80
2023-04-17T18:15:20.440Z,12.52
2023-04-17T18:22:55.857Z,12.45
2023-04-17T18:30:33.053Z,13.70
2023-04-17T18:38:12.291Z,12.13
2023-04-17T18:45:46.331Z,11.63
2023-04-17T18:53:22.198Z,12.67
2023-04-17T19:00:56.444Z,13.43
2023-04-17T19:08:32.826Z,13.15
2023-04-17T19:16:07.323Z,11.93
2023-04-17T19:23:42.946Z,14.82
2023-04-17T19:31:17.006Z,13.38
2023-04-17T19:38:54.948Z,14.53
2023-04-17T19:46:29.296Z,14.30
2023-04-17T19:54:07.881Z,15.93
2023-04-17T20:01:43.934Z,17.45
2023-04-17T20:09:19.651Z,17.13
2023-04-17T20:16:53.799Z,16.65
2023-04-17T20:24:29.179Z,20.80
2023-04-17T20:32:04.070Z,16.70
2023-04-17T20:39:40.901Z,17.38
2023-04-17T20:47:14.799Z,15.80
2023-04-17T20:54:50.160Z,17.67
2023-04-17T21:02:24.103Z,16.30
2023-04-17T21:09:59.576Z,15.00
2023-04-17T21:17:33.615Z,15.60
2023-04-17T21:25:11.364Z,17.03
2023-04-17T21:32:45.274Z,15.02
2023-04-17T21:40:20.804Z,16.00
2023-04-17T21:47:54.677Z,13.80
2023-04-17T21:55:29.979Z,15.73
2023-04-17T22:03:04.338Z,13.73
2023-04-17T22:18:32.665Z,14.80
2023-04-17T22:26:08.160Z,15.35
2023-04-17T22:41:36.058Z,13.70
2023-04-17T22:49:10.312Z,13.50
2023-04-17T22:56:45.690Z,13.50
2023-04-17T23:04:22.137Z,12.63
2023-04-17T23:11:57.748Z,14.18
2023-04-17T23:19:31.775Z,12.75
2023-04-17T23:27:07.381Z,12.83
2023-04-17T23:34:41.891Z,12.43
2023-04-17T23:42:17.539Z,11.70
2023-04-17T23:49:51.596Z,11.43
2023-04-17T23:57:26.898Z,13.40
